createdAt,value
2022-11-18T00:02:04.629Z,100166.79
2022-11-18T00:04:33.018Z,100168.27
2022-11-18T00:07:06.410Z,100178.77
2022-11-18T00:09:34.759Z,100177.89
2022-11-18T00:12:21.050Z,100179.18
2022-11-18T00:14:49.649Z,100177.10
2022-11-18T00:17:17.830Z,100178.98
2022-11-18T00:19:48.262Z,100182.19
2022-11-18T00:22:28.472Z,100176.30
2022-11-18T00:24:58.306Z,100177.98
2022-11-18T00:27:30.963Z,100172.05
2022-11-18T00:30:02.299Z,100162.89
2022-11-18T00:32:32.099Z,100157.29
2022-11-18T00:35:08.821Z,100151.88
2022-11-18T00:37:42.421Z,100153.50
2022-11-18T00:40:11.284Z,100144.98
2022-11-18T00:42:53.486Z,100133.15
2022-11-18T00:56:48.098Z,100128.83
2022-11-18T00:59:17.614Z,100128.49
2022-11-18T01:01:49.027Z,100129.11
2022-11-18T01:04:17.715Z,100128.56
2022-11-18T01:06:48.674Z,100111.70
2022-11-18T01:09:19.535Z,100104.20
2022-11-18T01:12:06.566Z,100107.70
2022-11-18T01:25:34.520Z,100122.21
2022-11-18T01:28:08.690Z,100133.30
2022-11-18T01:30:42.552Z,100092.52
2022-11-18T01:33:15.092Z,100145.52
2022-11-18T01:35:50.949Z,100125.13
2022-11-18T01:38:23.087Z,100136.92
2022-11-18T01:40:54.456Z,100131.73
2022-11-18T01:43:26.653Z,100138.04
2022-11-18T01:46:00.080Z,100142.55
2022-11-18T01:48:39.561Z,100138.85
2022-11-18T01:51:17.319Z,100145.88
2022-11-18T01:57:12.004Z,100156.91
2022-11-18T01:59:50.136Z,100163.50
2022-11-18T02:02:24.182Z,100165.02
2022-11-18T02:04:55.400Z,100157.74
2022-11-18T02:07:25.494Z,100151.48
2022-11-18T02:09:56.823Z,100151.30
2022-11-18T02:12:26.986Z,100150.00
2022-11-18T02:15:30.493Z,100145.64
2022-11-18T02:18:42.794Z,100142.48
2022-11-18T02:21:53.234Z,100142.91
2022-11-18T02:25:00.381Z,100123.13
2022-11-18T02:28:15.452Z,100144.41
2022-11-18T02:31:02.828Z,100139.52
2022-11-18T02:34:44.643Z,100137.27
2022-11-18T02:37:51.614Z,100139.45
2022-11-18T02:40:51.576Z,100146.27
2022-11-18T02:43:37.539Z,100152.00
2022-11-18T02:46:43.172Z,100152.35
2022-11-18T02:49:38.697Z,100150.58
2022-11-18T02:52:12.235Z,100153.55
2022-11-18T02:54:41.806Z,100160.33
2022-11-18T02:57:11.291Z,100163.91
2022-11-18T02:59:41.022Z,100168.28
2022-11-18T03:05:48.679Z,100154.45
2022-11-18T03:08:23.778Z,100160.23
2022-11-18T03:39:10.438Z,100198.25
2022-11-18T03:41:48.503Z,100203.63
2022-11-18T03:44:26.247Z,100204.89
2022-11-18T04:06:33.428Z,100187.11
2022-11-18T04:09:11.670Z,100188.80
2022-11-18T04:12:02.660Z,100186.27
2022-11-18T04:14:43.329Z,100185.60
2022-11-18T04:28:25.076Z,100192.66
2022-11-18T04:30:52.839Z,100200.17
2022-11-18T04:33:20.957Z,100203.04
2022-11-18T04:35:50.340Z,100203.45
2022-11-18T04:38:21.965Z,100209.46
2022-11-18T05:05:59.122Z,100202.48
2022-11-18T05:08:28.052Z,100210.27
2022-11-18T05:15:50.210Z,100225.56
2022-11-18T05:19:15.214Z,100238.95
2022-11-18T05:24:37.629Z,100259.35
2022-11-18T05:27:06.383Z,100261.89
2022-11-18T05:29:36.755Z,100267.51
2022-11-18T05:33:09.316Z,100262.07
2022-11-18T05:36:21.567Z,100271.91
2022-11-18T05:39:08.308Z,100277.40
2022-11-18T05:42:40.468Z,100267.03
2022-11-18T05:45:34.611Z,100261.48
2022-11-18T05:48:25.443Z,100255.75
2022-11-18T05:50:55.428Z,100243.92
2022-11-18T05:53:26.145Z,100243.69
2022-11-18T05:56:10.591Z,100236.27
2022-11-18T05:58:59.311Z,100233.73
2022-11-18T06:02:33.750Z,100238.70
2022-11-18T06:05:07.299Z,100242.62
2022-11-18T06:07:47.827Z,100248.04
2022-11-18T06:10:34.255Z,100246.80
2022-11-18T06:13:21.334Z,100238.41
2022-11-18T06:16:25.047Z,100231.77
2022-11-18T06:19:08.504Z,100235.93
2022-11-18T06:22:22.058Z,100232.55
2022-11-18T06:25:05.642Z,100227.02
2022-11-18T06:28:19.601Z,100230.48
2022-11-18T06:30:54.702Z,100235.11
2022-11-18T06:33:24.464Z,100237.14
2022-11-18T06:36:01.486Z,100237.46
2022-11-18T06:38:29.404Z,100237.89
2022-11-18T06:41:04.917Z,100249.75
2022-11-18T06:43:43.670Z,100255.65
2022-11-18T06:47:02.168Z,100264.09
2022-11-18T06:50:26.337Z,100266.92
2022-11-18T06:56:29.811Z,100262.39
2022-11-18T06:58:59.798Z,100260.52
2022-11-18T07:01:30.775Z,100260.58
2022-11-18T07:04:28.130Z,100252.00
2022-11-18T07:07:00.200Z,100249.61
2022-11-18T08:05:40.325Z,100204.25
2022-11-18T08:08:36.296Z,100205.13
2022-11-18T08:11:42.583Z,100201.38
2022-11-18T08:14:20.155Z,100196.20
2022-11-18T08:17:22.205Z,100191.88
2022-11-18T08:20:17.208Z,100196.00
2022-11-18T08:22:45.977Z,100200.99
2022-11-18T08:25:14.341Z,100205.17
2022-11-18T08:41:52.929Z,100214.90
2022-11-18T08:44:21.350Z,100226.09
2022-11-18T08:47:06.905Z,100231.24
2022-11-18T08:49:36.070Z,100233.88
2022-11-18T08:52:25.780Z,100235.38
2022-11-18T09:09:07.998Z,100214.61
2022-11-18T09:12:09.079Z,100193.17
2022-11-18T09:15:21.595Z,100194.99
2022-11-18T09:18:05.137Z,100194.27
2022-11-18T09:20:35.436Z,100192.74
2022-11-18T09:23:04.165Z,100187.02
2022-11-18T09:25:40.393Z,100176.91
2022-11-18T09:28:12.944Z,100166.91
2022-11-18T09:32:00.997Z,100160.61
2022-11-18T09:35:36.044Z,100160.64
2022-11-18T09:38:53.492Z,100149.30
2022-11-18T09:53:31.290Z,100137.98
2022-11-18T09:56:34.483Z,100138.78
2022-11-18T09:59:16.179Z,100146.89
2022-11-18T10:01:55.807Z,100137.89
2022-11-18T10:04:24.672Z,100136.67
2022-11-18T10:06:59.215Z,100128.54
2022-11-18T10:09:55.500Z,100127.43
2022-11-18T10:13:01.172Z,100119.20
2022-11-18T10:16:01.396Z,100121.75
2022-11-18T10:19:01.071Z,100123.65
2022-11-18T10:22:05.539Z,100114.89
2022-11-18T10:25:06.460Z,100109.70
2022-11-18T10:27:41.201Z,100113.00
2022-11-18T10:30:19.699Z,100114.86
2022-11-18T10:33:01.823Z,100115.02
2022-11-18T10:35:36.193Z,100117.74
2022-11-18T11:17:35.106Z,100130.57
2022-11-18T11:21:06.077Z,100131.34
2022-11-18T11:40:36.117Z,100127.96
2022-11-18T11:43:55.091Z,100129.46
2022-11-18T11:48:05.470Z,100125.84
2022-11-18T11:51:03.545Z,100127.91
2022-11-18T11:54:46.914Z,100129.02
2022-11-18T11:57:51.755Z,100129.80
2022-11-18T12:01:18.823Z,100129.42
2022-11-18T12:03:52.468Z,100130.21
2022-11-18T12:06:22.145Z,100129.05
2022-11-18T12:09:40.214Z,100135.23
2022-11-18T12:13:14.236Z,100137.30
2022-11-18T12:16:34.251Z,100127.99
2022-11-18T12:19:15.645Z,100119.98
2022-11-18T12:24:51.483Z,100120.36
2022-11-18T12:27:45.840Z,100117.44
2022-11-18T12:35:36.014Z,100098.89
2022-11-18T12:46:51.758Z,100073.04
2022-11-18T12:49:25.271Z,100068.83
2022-11-18T12:52:20.637Z,100065.65
2022-11-18T12:54:58.424Z,100066.60
2022-11-18T12:57:43.889Z,100069.02
2022-11-18T13:01:05.154Z,100073.78
2022-11-18T13:04:53.029Z,100069.74
2022-11-18T13:09:00.481Z,100063.42
2022-11-18T13:11:57.739Z,100056.27
2022-11-18T13:14:58.611Z,100050.05
2022-11-18T13:18:20.256Z,100034.35
2022-11-18T13:21:24.073Z,100025.29
2022-11-18T13:24:16.507Z,100013.18
2022-11-18T13:27:50.982Z,100011.86
2022-11-18T13:30:40.185Z,99990.16
2022-11-18T13:38:50.521Z,100004.20
2022-11-18T13:41:24.941Z,100011.95
2022-11-18T13:50:19.092Z,100025.33
2022-11-18T13:53:25.027Z,100025.25
2022-11-18T14:00:40.107Z,100016.94
2022-11-18T14:04:08.753Z,100020.70
2022-11-18T14:07:07.202Z,100025.21
2022-11-18T14:11:17.753Z,100029.07
2022-11-18T14:14:33.784Z,100023.33
2022-11-18T14:21:27.008Z,100019.74
2022-11-18T14:24:01.717Z,100019.02
2022-11-18T14:26:38.827Z,100017.57
2022-11-18T14:29:24.012Z,100019.41
2022-11-18T14:39:56.604Z,100038.02
2022-11-18T14:42:46.574Z,100035.26
2022-11-18T14:46:14.655Z,100034.06
2022-11-18T14:52:56.882Z,100029.52
2022-11-18T17:27:26.360Z,99872.09
2022-11-18T17:54:48.997Z,99831.65
2022-11-18T18:14:13.303Z,99814.41
2022-11-18T18:31:06.919Z,99787.04
2022-11-18T18:33:38.214Z,99781.25
2022-11-18T18:36:37.820Z,99785.59
2022-11-18T18:39:16.891Z,99789.16
2022-11-18T19:01:22.968Z,99784.48
2022-11-18T19:04:46.933Z,99778.32
2022-11-18T19:07:24.310Z,99770.16
2022-11-18T19:10:12.233Z,99771.52
2022-11-18T19:12:53.174Z,99765.02
2022-11-18T19:15:26.797Z,99761.92
2022-11-18T19:18:06.310Z,99755.42
2022-11-18T19:20:36.479Z,99744.40
2022-11-18T19:26:22.653Z,99737.26
2022-11-18T19:28:50.770Z,99737.62
2022-11-18T19:31:24.270Z,99737.98
2022-11-18T19:34:07.988Z,99734.16
2022-11-18T19:36:52.418Z,99731.45
2022-11-18T19:39:29.343Z,99726.94
2022-11-18T19:41:59.611Z,99724.01
2022-11-18T19:44:32.942Z,99708.44
2022-11-18T19:47:03.639Z,99702.58
2022-11-18T19:49:40.278Z,99696.23
2022-11-18T19:52:12.286Z,99688.21
2022-11-18T19:55:02.661Z,99676.77
2022-11-18T19:57:57.555Z,99666.55
2022-11-18T20:00:38.994Z,99665.27
2022-11-18T20:03:07.821Z,99660.48
2022-11-18T20:05:57.173Z,99658.45
2022-11-18T20:08:43.582Z,99655.98
2022-11-18T20:11:29.050Z,99650.33
2022-11-18T20:14:00.188Z,99649.84
2022-11-18T20:17:12.965Z,99646.13
2022-11-18T20:20:22.084Z,99651.14
2022-11-18T20:23:02.531Z,99648.49
2022-11-18T20:25:31.306Z,99641.75
2022-11-18T20:28:47.086Z,99634.09
2022-11-18T20:31:32.209Z,99627.90
2022-11-18T20:38:02.261Z,99618.09
2022-11-18T20:42:16.392Z,99616.98
2022-11-18T20:44:46.005Z,99616.14
2022-11-18T20:47:20.383Z,99621.48
2022-11-18T20:53:02.844Z,99605.20
2022-11-18T20:55:37.922Z,99592.59
2022-11-18T20:58:06.617Z,99597.67
2022-11-18T21:00:35.696Z,99593.72
2022-11-18T21:03:09.405Z,99589.89
2022-11-18T21:05:42.934Z,99593.10
2022-11-18T21:08:11.997Z,99590.91
2022-11-18T21:10:49.583Z,99588.20
2022-11-18T21:13:58.252Z,99578.80
2022-11-18T21:17:00.840Z,99575.65
2022-11-18T21:19:33.887Z,99567.52
2022-11-18T21:22:02.372Z,99566.69
2022-11-18T21:24:32.915Z,99562.05
2022-11-18T21:27:02.261Z,99568.09
2022-11-18T21:29:31.791Z,99570.24
2022-11-18T21:32:01.063Z,99567.48
2022-11-18T21:34:41.567Z,99572.51
2022-11-18T21:37:12.159Z,99574.83
2022-11-18T21:39:41.092Z,99573.80
2022-11-18T21:42:08.873Z,99578.28
2022-11-18T21:44:36.718Z,99585.52
2022-11-18T21:47:05.274Z,99582.77
2022-11-18T21:49:35.173Z,99572.71
2022-11-18T21:52:05.879Z,99560.86
2022-11-18T21:57:49.032Z,99555.39
2022-11-18T22:00:19.663Z,99551.45
2022-11-18T22:02:51.928Z,99546.09
2022-11-18T22:05:21.295Z,99540.36
2022-11-18T22:07:58.133Z,99530.09
2022-11-18T22:10:32.385Z,99529.69
2022-11-18T22:13:01.756Z,99528.29
2022-11-18T22:15:32.302Z,99526.17
2022-11-18T22:18:01.342Z,99519.27
2022-11-18T22:23:38.028Z,99512.46
2022-11-18T22:26:23.381Z,99520.13
2022-11-18T22:28:58.384Z,99520.73
2022-11-18T22:31:32.730Z,99513.15
2022-11-18T22:34:02.719Z,99510.70
2022-11-18T22:36:32.564Z,99500.28
2022-11-18T22:39:02.073Z,99498.93
2022-11-18T22:41:49.503Z,99496.19
2022-11-18T22:44:18.604Z,99491.30
2022-11-18T22:46:48.130Z,99492.79
2022-11-18T22:49:18.306Z,99490.45
2022-11-18T22:51:49.649Z,99484.70
2022-11-18T22:57:08.029Z,99506.80
2022-11-18T22:59:37.421Z,99519.27
2022-11-18T23:02:06.832Z,99523.52
2022-11-18T23:04:35.840Z,99523.33
2022-11-18T23:07:05.140Z,99529.33
2022-11-18T23:09:34.709Z,99534.23
2022-11-18T23:12:22.313Z,99528.15
2022-11-18T23:14:51.086Z,99534.14
2022-11-18T23:17:19.966Z,99535.88
2022-11-18T23:19:48.913Z,99533.64
2022-11-18T23:22:18.119Z,99536.04
2022-11-18T23:24:47.090Z,99540.75
2022-11-18T23:27:16.342Z,99540.20
2022-11-18T23:29:45.202Z,99537.48
2022-11-18T23:32:14.085Z,99540.44
2022-11-18T23:34:43.006Z,99540.17
2022-11-18T23:37:14.218Z,99544.51
2022-11-18T23:39:43.034Z,99546.00
2022-11-18T23:42:12.130Z,99549.55
2022-11-18T23:44:47.398Z,99549.02
2022-11-18T23:47:16.552Z,99550.55
2022-11-18T23:49:45.389Z,99548.86
2022-11-18T23:52:15.098Z,99552.74
2022-11-18T23:54:43.756Z,99566.28
2022-11-18T23:57:12.575Z,99574.36
2022-11-18T23:59:41.608Z,99580.17
